SARM/MCS METAR and TAF weather

Enter ICAO airport designator
Station Type Date Time Source
SARM METAR 2019/10/30 23:25 UTC NOAA

SARM 302325Z 20030KT 2000 BKN007 SCT040CB 20/19 Q1011


Station Type Date Time Source
SARM Decoded METAR 2019/10/30 23:25 UTC NOAA

Monte Caseros Aerodrome, Argentina (SARM) 30-16S 057-39W 54M
Oct 30, 2019 - 07:25 PM EDT / 2019.10.30 2325 UTC
Wind: from the SSW (200 degrees) at 35 MPH (30 KT):0
Visibility: 1 mile(s):0
Sky conditions: mostly cloudy
Weather: Cumulonimbus clouds observed
Temperature: 68 F (20 C)
Dew Point: 66 F (19 C)
Relative Humidity: 93%
Pressure (altimeter): 29.85 in. Hg (1011 hPa)
ob: SARM 302325Z 20030KT 2000 BKN007 SCT040CB 20/19 Q1011
cycle: 23

Station Type Date Time Source
SARM TAF UTC NOAA

Error!

Example: see airport list